sensor_id;sensor_type;location;lat;lon;timestamp;P1;durP1;ratioP1;P2;durP2;ratioP2
25327;SDS011;13279;51.300;12.394;2023-03-31T00:02:19;7.37;;;2.67;;
25327;SDS011;13279;51.300;12.394;2023-03-31T00:04:47;7.57;;;1.33;;
25327;SDS011;13279;51.300;12.394;2023-03-31T00:07:18;4.97;;;2.20;;
25327;SDS011;13279;51.300;12.394;2023-03-31T00:09:47;3.77;;;1.50;;
25327;SDS011;13279;51.300;12.394;2023-03-31T00:12:19;5.53;;;1.60;;
25327;SDS011;13279;51.300;12.394;2023-03-31T00:14:47;5.17;;;2.30;;
25327;SDS011;13279;51.300;12.394;2023-03-31T00:17:16;2.57;;;1.90;;
25327;SDS011;13279;51.300;12.394;2023-03-31T00:19:44;5.17;;;1.73;;
25327;SDS011;13279;51.300;12.394;2023-03-31T00:22:14;3.30;;;1.67;;
25327;SDS011;13279;51.300;12.394;2023-03-31T00:24:43;7.20;;;2.17;;
25327;SDS011;13279;51.300;12.394;2023-03-31T00:27:11;7.63;;;1.70;;
25327;SDS011;13279;51.300;12.394;2023-03-31T00:29:38;1.63;;;1.33;;
25327;SDS011;13279;51.300;12.394;2023-03-31T00:32:07;2.37;;;1.43;;
25327;SDS011;13279;51.300;12.394;2023-03-31T00:34:36;2.93;;;1.70;;
25327;SDS011;13279;51.300;12.394;2023-03-31T00:37:06;7.87;;;1.70;;
25327;SDS011;13279;51.300;12.394;2023-03-31T00:39:34;6.03;;;1.90;;
25327;SDS011;13279;51.300;12.394;2023-03-31T00:42:02;3.57;;;1.57;;
25327;SDS011;13279;51.300;12.394;2023-03-31T00:44:30;5.07;;;1.53;;
25327;SDS011;13279;51.300;12.394;2023-03-31T00:47:00;6.10;;;1.93;;
25327;SDS011;13279;51.300;12.394;2023-03-31T00:49:32;6.87;;;2.67;;
25327;SDS011;13279;51.300;12.394;2023-03-31T00:52:06;5.53;;;2.13;;
25327;SDS011;13279;51.300;12.394;2023-03-31T00:54:43;4.40;;;1.50;;
25327;SDS011;13279;51.300;12.394;2023-03-31T00:57:13;4.33;;;1.67;;
25327;SDS011;13279;51.300;12.394;2023-03-31T00:59:44;3.53;;;1.50;;
25327;SDS011;13279;51.300;12.394;2023-03-31T01:02:14;5.37;;;2.47;;
25327;SDS011;13279;51.300;12.394;2023-03-31T01:04:45;3.77;;;1.50;;
25327;SDS011;13279;51.300;12.394;2023-03-31T01:07:21;6.83;;;1.87;;
25327;SDS011;13279;51.300;12.394;2023-03-31T01:09:52;5.07;;;1.53;;
25327;SDS011;13279;51.300;12.394;2023-03-31T01:12:26;4.77;;;1.50;;
25327;SDS011;13279;51.300;12.394;2023-03-31T01:14:54;8.30;;;1.90;;
25327;SDS011;13279;51.300;12.394;2023-03-31T01:17:22;4.97;;;1.40;;
25327;SDS011;13279;51.300;12.394;2023-03-31T01:19:56;4.90;;;1.13;;
25327;SDS011;13279;51.300;12.394;2023-03-31T01:26:02;5.90;;;1.47;;
25327;SDS011;13279;51.300;12.394;2023-03-31T01:28:49;2.03;;;1.10;;
25327;SDS011;13279;51.300;12.394;2023-03-31T01:41:10;5.17;;;1.30;;
25327;SDS011;13279;51.300;12.394;2023-03-31T01:43:48;4.63;;;1.30;;
25327;SDS011;13279;51.300;12.394;2023-03-31T01:46:26;2.97;;;1.57;;
25327;SDS011;13279;51.300;12.394;2023-03-31T01:49:02;7.67;;;1.50;;
25327;SDS011;13279;51.300;12.394;2023-03-31T01:51:38;1.97;;;1.10;;
25327;SDS011;13279;51.300;12.394;2023-03-31T01:54:14;4.37;;;1.50;;
25327;SDS011;13279;51.300;12.394;2023-03-31T01:56:50;7.57;;;1.50;;
25327;SDS011;13279;51.300;12.394;2023-03-31T01:59:21;9.13;;;2.13;;
25327;SDS011;13279;51.300;12.394;2023-03-31T02:01:54;3.47;;;1.57;;
25327;SDS011;13279;51.300;12.394;2023-03-31T02:04:26;8.10;;;2.17;;
25327;SDS011;13279;51.300;12.394;2023-03-31T02:06:59;2.30;;;1.47;;
25327;SDS011;13279;51.300;12.394;2023-03-31T02:09:34;4.77;;;1.50;;
25327;SDS011;13279;51.300;12.394;2023-03-31T02:12:07;3.33;;;1.53;;
25327;SDS011;13279;51.300;12.394;2023-03-31T02:14:38;6.57;;;1.97;;
25327;SDS011;13279;51.300;12.394;2023-03-31T02:17:09;5.17;;;1.67;;
25327;SDS011;13279;51.300;12.394;2023-03-31T02:19:43;3.47;;;1.57;;
25327;SDS011;13279;51.300;12.394;2023-03-31T02:22:14;9.77;;;1.93;;
25327;SDS011;13279;51.300;12.394;2023-03-31T02:24:45;7.47;;;2.33;;
25327;SDS011;13279;51.300;12.394;2023-03-31T02:27:17;5.20;;;1.60;;
25327;SDS011;13279;51.300;12.394;2023-03-31T02:29:48;1.53;;;1.10;;
25327;SDS011;13279;51.300;12.394;2023-03-31T02:32:19;2.23;;;1.50;;
25327;SDS011;13279;51.300;12.394;2023-03-31T02:34:52;6.33;;;2.23;;
25327;SDS011;13279;51.300;12.394;2023-03-31T02:37:21;8.77;;;2.30;;
25327;SDS011;13279;51.300;12.394;2023-03-31T02:39:49;4.17;;;1.50;;
25327;SDS011;13279;51.300;12.394;2023-03-31T02:42:21;11.90;;;3.30;;
25327;SDS011;13279;51.300;12.394;2023-03-31T02:44:50;3.43;;;1.63;;
25327;SDS011;13279;51.300;12.394;2023-03-31T02:47:19;3.63;;;1.50;;
25327;SDS011;13279;51.300;12.394;2023-03-31T02:49:48;4.33;;;1.53;;
25327;SDS011;13279;51.300;12.394;2023-03-31T02:52:24;8.40;;;1.87;;
25327;SDS011;13279;51.300;12.394;2023-03-31T02:55:19;8.53;;;2.17;;
25327;SDS011;13279;51.300;12.394;2023-03-31T02:58:01;4.90;;;1.93;;
25327;SDS011;13279;51.300;12.394;2023-03-31T03:00:57;8.27;;;1.60;;
25327;SDS011;13279;51.300;12.394;2023-03-31T03:03:37;10.07;;;2.03;;
25327;SDS011;13279;51.300;12.394;2023-03-31T03:06:15;5.33;;;1.90;;
25327;SDS011;13279;51.300;12.394;2023-03-31T03:09:07;6.30;;;1.63;;
25327;SDS011;13279;51.300;12.394;2023-03-31T03:11:51;4.73;;;1.37;;
25327;SDS011;13279;51.300;12.394;2023-03-31T03:14:30;6.83;;;1.50;;
25327;SDS011;13279;51.300;12.394;2023-03-31T03:17:05;5.13;;;1.97;;
25327;SDS011;13279;51.300;12.394;2023-03-31T03:19:35;5.93;;;1.53;;
25327;SDS011;13279;51.300;12.394;2023-03-31T03:22:02;6.57;;;2.00;;
25327;SDS011;13279;51.300;12.394;2023-03-31T03:24:30;8.50;;;1.63;;
25327;SDS011;13279;51.300;12.394;2023-03-31T03:26:58;10.43;;;1.77;;
25327;SDS011;13279;51.300;12.394;2023-03-31T03:29:27;10.83;;;2.80;;
25327;SDS011;13279;51.300;12.394;2023-03-31T03:31:55;4.40;;;1.73;;
25327;SDS011;13279;51.300;12.394;2023-03-31T03:34:22;3.43;;;1.50;;
25327;SDS011;13279;51.300;12.394;2023-03-31T03:36:51;6.27;;;1.53;;
25327;SDS011;13279;51.300;12.394;2023-03-31T03:39:18;4.83;;;1.63;;
25327;SDS011;13279;51.300;12.394;2023-03-31T03:41:46;6.47;;;1.97;;
25327;SDS011;13279;51.300;12.394;2023-03-31T03:44:14;5.60;;;2.00;;
25327;SDS011;13279;51.300;12.394;2023-03-31T03:46:50;9.50;;;2.00;;
25327;SDS011;13279;51.300;12.394;2023-03-31T03:49:19;4.10;;;1.30;;
25327;SDS011;13279;51.300;12.394;2023-03-31T03:51:47;3.90;;;1.40;;
25327;SDS011;13279;51.300;12.394;2023-03-31T03:54:15;3.50;;;1.40;;
25327;SDS011;13279;51.300;12.394;2023-03-31T03:56:42;4.90;;;1.53;;
25327;SDS011;13279;51.300;12.394;2023-03-31T03:59:09;2.43;;;1.50;;
25327;SDS011;13279;51.300;12.394;2023-03-31T04:01:37;5.80;;;1.37;;
25327;SDS011;13279;51.300;12.394;2023-03-31T04:04:05;3.80;;;1.33;;
25327;SDS011;13279;51.300;12.394;2023-03-31T04:06:34;5.17;;;1.93;;
25327;SDS011;13279;51.300;12.394;2023-03-31T04:09:03;6.10;;;1.90;;
25327;SDS011;13279;51.300;12.394;2023-03-31T04:11:31;3.07;;;1.43;;
25327;SDS011;13279;51.300;12.394;2023-03-31T04:13:59;7.73;;;1.87;;
25327;SDS011;13279;51.300;12.394;2023-03-31T04:16:27;4.53;;;1.87;;
25327;SDS011;13279;51.300;12.394;2023-03-31T04:18:55;5.27;;;2.50;;
25327;SDS011;13279;51.300;12.394;2023-03-31T04:21:24;4.00;;;1.47;;
25327;SDS011;13279;51.300;12.394;2023-03-31T04:23:53;5.73;;;1.90;;
25327;SDS011;13279;51.300;12.394;2023-03-31T04:26:26;9.63;;;1.90;;
25327;SDS011;13279;51.300;12.394;2023-03-31T04:29:04;5.77;;;1.83;;
25327;SDS011;13279;51.300;12.394;2023-03-31T04:31:32;9.43;;;2.33;;
25327;SDS011;13279;51.300;12.394;2023-03-31T04:34:03;8.73;;;1.83;;
25327;SDS011;13279;51.300;12.394;2023-03-31T04:36:31;7.20;;;1.67;;
25327;SDS011;13279;51.300;12.394;2023-03-31T04:39:01;5.17;;;1.50;;
25327;SDS011;13279;51.300;12.394;2023-03-31T04:41:28;7.97;;;1.87;;
25327;SDS011;13279;51.300;12.394;2023-03-31T04:43:56;4.90;;;1.57;;
25327;SDS011;13279;51.300;12.394;2023-03-31T04:46:23;5.27;;;1.60;;
25327;SDS011;13279;51.300;12.394;2023-03-31T04:48:57;3.53;;;1.50;;
25327;SDS011;13279;51.300;12.394;2023-03-31T04:51:25;6.80;;;1.63;;
25327;SDS011;13279;51.300;12.394;2023-03-31T04:53:52;5.97;;;1.60;;
25327;SDS011;13279;51.300;12.394;2023-03-31T04:56:21;8.13;;;2.00;;
25327;SDS011;13279;51.300;12.394;2023-03-31T04:58:48;5.80;;;1.73;;
25327;SDS011;13279;51.300;12.394;2023-03-31T05:01:16;6.13;;;1.27;;
25327;SDS011;13279;51.300;12.394;2023-03-31T05:03:44;5.13;;;1.47;;
25327;SDS011;13279;51.300;12.394;2023-03-31T05:06:13;6.10;;;1.80;;
25327;SDS011;13279;51.300;12.394;2023-03-31T05:08:40;3.83;;;1.53;;
25327;SDS011;13279;51.300;12.394;2023-03-31T05:11:08;7.20;;;1.90;;
25327;SDS011;13279;51.300;12.394;2023-03-31T05:13:37;4.07;;;1.60;;
25327;SDS011;13279;51.300;12.394;2023-03-31T05:16:05;12.80;;;1.60;;
25327;SDS011;13279;51.300;12.394;2023-03-31T05:18:33;4.60;;;1.70;;
25327;SDS011;13279;51.300;12.394;2023-03-31T05:21:11;4.53;;;1.80;;
25327;SDS011;13279;51.300;12.394;2023-03-31T05:23:39;5.90;;;1.70;;
25327;SDS011;13279;51.300;12.394;2023-03-31T05:26:08;4.87;;;2.40;;
25327;SDS011;13279;51.300;12.394;2023-03-31T05:28:38;4.23;;;1.77;;
25327;SDS011;13279;51.300;12.394;2023-03-31T05:31:06;6.80;;;1.73;;
25327;SDS011;13279;51.300;12.394;2023-03-31T05:33:34;1.97;;;1.27;;
25327;SDS011;13279;51.300;12.394;2023-03-31T05:36:06;4.53;;;1.83;;
25327;SDS011;13279;51.300;12.394;2023-03-31T05:38:34;6.57;;;1.87;;
25327;SDS011;13279;51.300;12.394;2023-03-31T05:41:02;3.00;;;1.97;;
25327;SDS011;13279;51.300;12.394;2023-03-31T05:43:31;2.40;;;1.57;;
25327;SDS011;13279;51.300;12.394;2023-03-31T05:46:00;5.23;;;1.80;;
25327;SDS011;13279;51.300;12.394;2023-03-31T05:48:28;6.00;;;1.33;;
25327;SDS011;13279;51.300;12.394;2023-03-31T05:50:56;7.00;;;2.27;;
25327;SDS011;13279;51.300;12.394;2023-03-31T05:53:24;4.77;;;2.10;;
25327;SDS011;13279;51.300;12.394;2023-03-31T05:55:55;3.83;;;1.60;;
25327;SDS011;13279;51.300;12.394;2023-03-31T05:58:24;4.43;;;1.53;;
25327;SDS011;13279;51.300;12.394;2023-03-31T06:01:00;5.43;;;2.23;;
25327;SDS011;13279;51.300;12.394;2023-03-31T06:03:31;10.93;;;1.90;;
25327;SDS011;13279;51.300;12.394;2023-03-31T06:05:59;5.30;;;1.77;;
25327;SDS011;13279;51.300;12.394;2023-03-31T06:08:27;7.60;;;1.80;;
25327;SDS011;13279;51.300;12.394;2023-03-31T06:10:55;3.13;;;1.40;;
25327;SDS011;13279;51.300;12.394;2023-03-31T06:13:23;8.87;;;1.60;;
25327;SDS011;13279;51.300;12.394;2023-03-31T06:15:53;2.80;;;1.50;;
25327;SDS011;13279;51.300;12.394;2023-03-31T06:18:23;8.60;;;1.83;;
25327;SDS011;13279;51.300;12.394;2023-03-31T06:20:50;3.50;;;1.53;;
25327;SDS011;13279;51.300;12.394;2023-03-31T06:23:18;5.23;;;1.73;;
25327;SDS011;13279;51.300;12.394;2023-03-31T06:25:45;9.33;;;1.70;;
25327;SDS011;13279;51.300;12.394;2023-03-31T06:28:13;5.67;;;1.47;;
25327;SDS011;13279;51.300;12.394;2023-03-31T06:30:40;6.47;;;1.83;;
25327;SDS011;13279;51.300;12.394;2023-03-31T06:33:08;7.87;;;1.53;;
25327;SDS011;13279;51.300;12.394;2023-03-31T06:35:37;3.80;;;1.40;;
25327;SDS011;13279;51.300;12.394;2023-03-31T06:38:06;5.43;;;1.60;;
25327;SDS011;13279;51.300;12.394;2023-03-31T06:40:33;4.43;;;2.13;;
25327;SDS011;13279;51.300;12.394;2023-03-31T06:43:01;4.77;;;1.40;;
25327;SDS011;13279;51.300;12.394;2023-03-31T06:45:31;6.07;;;2.07;;
25327;SDS011;13279;51.300;12.394;2023-03-31T06:47:59;5.30;;;1.40;;
25327;SDS011;13279;51.300;12.394;2023-03-31T06:50:26;2.63;;;1.43;;
25327;SDS011;13279;51.300;12.394;2023-03-31T06:52:55;6.27;;;1.67;;
25327;SDS011;13279;51.300;12.394;2023-03-31T06:55:24;3.13;;;1.70;;
25327;SDS011;13279;51.300;12.394;2023-03-31T06:57:52;2.90;;;1.43;;
25327;SDS011;13279;51.300;12.394;2023-03-31T07:00:20;4.60;;;1.73;;
25327;SDS011;13279;51.300;12.394;2023-03-31T07:02:50;6.80;;;1.43;;
25327;SDS011;13279;51.300;12.394;2023-03-31T07:05:17;4.03;;;1.93;;
25327;SDS011;13279;51.300;12.394;2023-03-31T07:07:51;4.93;;;1.13;;
25327;SDS011;13279;51.300;12.394;2023-03-31T07:10:20;6.07;;;1.90;;
25327;SDS011;13279;51.300;12.394;2023-03-31T07:12:49;5.87;;;2.07;;
25327;SDS011;13279;51.300;12.394;2023-03-31T07:15:21;5.57;;;2.23;;
25327;SDS011;13279;51.300;12.394;2023-03-31T07:17:49;6.77;;;1.80;;
25327;SDS011;13279;51.300;12.394;2023-03-31T07:20:27;8.70;;;2.67;;
25327;SDS011;13279;51.300;12.394;2023-03-31T07:23:14;6.60;;;1.90;;
25327;SDS011;13279;51.300;12.394;2023-03-31T07:28:45;9.07;;;1.87;;
25327;SDS011;13279;51.300;12.394;2023-03-31T07:31:17;5.20;;;2.00;;
25327;SDS011;13279;51.300;12.394;2023-03-31T07:33:52;5.30;;;2.00;;
25327;SDS011;13279;51.300;12.394;2023-03-31T07:36:48;5.07;;;1.87;;
25327;SDS011;13279;51.300;12.394;2023-03-31T07:39:15;4.47;;;1.70;;
25327;SDS011;13279;51.300;12.394;2023-03-31T07:41:44;6.00;;;1.90;;
25327;SDS011;13279;51.300;12.394;2023-03-31T07:44:12;10.60;;;2.57;;
25327;SDS011;13279;51.300;12.394;2023-03-31T07:46:40;5.20;;;1.57;;
25327;SDS011;13279;51.300;12.394;2023-03-31T07:49:08;4.93;;;2.07;;
25327;SDS011;13279;51.300;12.394;2023-03-31T07:51:40;3.73;;;1.70;;
25327;SDS011;13279;51.300;12.394;2023-03-31T07:54:08;4.13;;;1.50;;
25327;SDS011;13279;51.300;12.394;2023-03-31T07:56:35;7.50;;;1.37;;
25327;SDS011;13279;51.300;12.394;2023-03-31T07:59:04;5.90;;;1.93;;
25327;SDS011;13279;51.300;12.394;2023-03-31T08:01:32;10.63;;;1.80;;
25327;SDS011;13279;51.300;12.394;2023-03-31T08:03:59;7.33;;;1.90;;
25327;SDS011;13279;51.300;12.394;2023-03-31T08:06:27;4.87;;;1.87;;
25327;SDS011;13279;51.300;12.394;2023-03-31T08:08:55;6.30;;;1.60;;
25327;SDS011;13279;51.300;12.394;2023-03-31T08:11:23;7.93;;;2.50;;
25327;SDS011;13279;51.300;12.394;2023-03-31T08:13:50;7.50;;;2.40;;
25327;SDS011;13279;51.300;12.394;2023-03-31T08:16:20;3.83;;;1.50;;
25327;SDS011;13279;51.300;12.394;2023-03-31T08:18:47;4.37;;;1.93;;
25327;SDS011;13279;51.300;12.394;2023-03-31T08:21:15;5.00;;;1.50;;
25327;SDS011;13279;51.300;12.394;2023-03-31T08:23:42;10.37;;;2.00;;
25327;SDS011;13279;51.300;12.394;2023-03-31T08:26:10;8.00;;;2.00;;
25327;SDS011;13279;51.300;12.394;2023-03-31T08:28:39;3.17;;;1.70;;
25327;SDS011;13279;51.300;12.394;2023-03-31T08:31:06;10.50;;;1.90;;
25327;SDS011;13279;51.300;12.394;2023-03-31T08:33:36;8.87;;;2.43;;
25327;SDS011;13279;51.300;12.394;2023-03-31T08:36:04;9.30;;;1.70;;
25327;SDS011;13279;51.300;12.394;2023-03-31T08:38:34;8.87;;;1.70;;
25327;SDS011;13279;51.300;12.394;2023-03-31T08:41:03;8.00;;;2.30;;
25327;SDS011;13279;51.300;12.394;2023-03-31T08:43:32;5.13;;;1.87;;
25327;SDS011;13279;51.300;12.394;2023-03-31T08:46:05;3.20;;;1.73;;
25327;SDS011;13279;51.300;12.394;2023-03-31T08:48:38;8.23;;;1.93;;
25327;SDS011;13279;51.300;12.394;2023-03-31T08:51:10;6.37;;;2.13;;
25327;SDS011;13279;51.300;12.394;2023-03-31T08:53:43;4.83;;;1.97;;
25327;SDS011;13279;51.300;12.394;2023-03-31T08:56:16;7.10;;;1.90;;
25327;SDS011;13279;51.300;12.394;2023-03-31T08:58:48;6.80;;;2.10;;
25327;SDS011;13279;51.300;12.394;2023-03-31T09:01:19;5.33;;;1.80;;
25327;SDS011;13279;51.300;12.394;2023-03-31T09:04:00;9.00;;;1.83;;
25327;SDS011;13279;51.300;12.394;2023-03-31T09:06:45;5.97;;;1.87;;
25327;SDS011;13279;51.300;12.394;2023-03-31T09:09:21;10.63;;;1.90;;
25327;SDS011;13279;51.300;12.394;2023-03-31T09:11:57;6.40;;;2.27;;
25327;SDS011;13279;51.300;12.394;2023-03-31T09:14:32;8.63;;;1.97;;
25327;SDS011;13279;51.300;12.394;2023-03-31T09:17:11;8.37;;;2.80;;
25327;SDS011;13279;51.300;12.394;2023-03-31T09:19:46;6.87;;;2.70;;
25327;SDS011;13279;51.300;12.394;2023-03-31T09:22:19;5.03;;;1.90;;
25327;SDS011;13279;51.300;12.394;2023-03-31T09:24:51;4.53;;;1.83;;
25327;SDS011;13279;51.300;12.394;2023-03-31T09:27:25;6.50;;;1.90;;
25327;SDS011;13279;51.300;12.394;2023-03-31T09:29:58;8.63;;;2.67;;
25327;SDS011;13279;51.300;12.394;2023-03-31T09:32:30;9.20;;;3.43;;
25327;SDS011;13279;51.300;12.394;2023-03-31T09:35:00;5.63;;;2.30;;
25327;SDS011;13279;51.300;12.394;2023-03-31T09:37:39;9.37;;;2.17;;
25327;SDS011;13279;51.300;12.394;2023-03-31T09:40:12;6.83;;;2.90;;
25327;SDS011;13279;51.300;12.394;2023-03-31T09:42:43;5.50;;;2.23;;
25327;SDS011;13279;51.300;12.394;2023-03-31T09:45:14;6.20;;;2.00;;
25327;SDS011;13279;51.300;12.394;2023-03-31T09:47:43;5.57;;;2.00;;
25327;SDS011;13279;51.300;12.394;2023-03-31T09:50:14;6.80;;;3.10;;
25327;SDS011;13279;51.300;12.394;2023-03-31T09:52:42;9.83;;;2.80;;
25327;SDS011;13279;51.300;12.394;2023-03-31T09:55:16;6.70;;;2.57;;
25327;SDS011;13279;51.300;12.394;2023-03-31T09:57:47;9.17;;;2.60;;
25327;SDS011;13279;51.300;12.394;2023-03-31T10:00:15;9.33;;;2.33;;
25327;SDS011;13279;51.300;12.394;2023-03-31T10:02:46;14.43;;;4.43;;
25327;SDS011;13279;51.300;12.394;2023-03-31T10:05:27;9.60;;;2.70;;
25327;SDS011;13279;51.300;12.394;2023-03-31T10:08:11;9.50;;;2.63;;
25327;SDS011;13279;51.300;12.394;2023-03-31T10:10:47;12.17;;;2.40;;
25327;SDS011;13279;51.300;12.394;2023-03-31T10:13:18;5.70;;;2.17;;
25327;SDS011;13279;51.300;12.394;2023-03-31T10:15:49;3.70;;;2.33;;
25327;SDS011;13279;51.300;12.394;2023-03-31T10:18:19;5.13;;;2.27;;
25327;SDS011;13279;51.300;12.394;2023-03-31T10:20:58;8.33;;;2.97;;
25327;SDS011;13279;51.300;12.394;2023-03-31T10:23:29;7.43;;;3.23;;
25327;SDS011;13279;51.300;12.394;2023-03-31T10:25:58;6.63;;;2.93;;
25327;SDS011;13279;51.300;12.394;2023-03-31T10:28:27;10.20;;;2.90;;
25327;SDS011;13279;51.300;12.394;2023-03-31T10:30:58;10.70;;;3.57;;
25327;SDS011;13279;51.300;12.394;2023-03-31T10:33:28;8.67;;;2.80;;
25327;SDS011;13279;51.300;12.394;2023-03-31T10:36:00;8.37;;;2.93;;
25327;SDS011;13279;51.300;12.394;2023-03-31T10:38:33;11.17;;;2.70;;
25327;SDS011;13279;51.300;12.394;2023-03-31T10:41:04;7.27;;;2.83;;
25327;SDS011;13279;51.300;12.394;2023-03-31T10:43:33;10.97;;;2.53;;
25327;SDS011;13279;51.300;12.394;2023-03-31T10:46:06;4.00;;;2.47;;
25327;SDS011;13279;51.300;12.394;2023-03-31T10:48:34;6.37;;;2.63;;
25327;SDS011;13279;51.300;12.394;2023-03-31T10:51:11;6.87;;;2.47;;
25327;SDS011;13279;51.300;12.394;2023-03-31T10:53:42;5.53;;;2.67;;
25327;SDS011;13279;51.300;12.394;2023-03-31T10:59:10;11.17;;;2.57;;
25327;SDS011;13279;51.300;12.394;2023-03-31T11:01:57;18.20;;;2.57;;
25327;SDS011;13279;51.300;12.394;2023-03-31T11:04:48;6.03;;;2.87;;
25327;SDS011;13279;51.300;12.394;2023-03-31T11:07:29;5.63;;;2.50;;
25327;SDS011;13279;51.300;12.394;2023-03-31T11:10:13;8.93;;;2.50;;
25327;SDS011;13279;51.300;12.394;2023-03-31T11:12:56;7.47;;;2.57;;
25327;SDS011;13279;51.300;12.394;2023-03-31T11:15:29;10.43;;;3.30;;
25327;SDS011;13279;51.300;12.394;2023-03-31T11:18:05;7.40;;;3.30;;
25327;SDS011;13279;51.300;12.394;2023-03-31T11:20:49;5.70;;;2.93;;
25327;SDS011;13279;51.300;12.394;2023-03-31T11:23:24;9.07;;;3.40;;
25327;SDS011;13279;51.300;12.394;2023-03-31T11:26:04;6.00;;;2.87;;
25327;SDS011;13279;51.300;12.394;2023-03-31T11:28:38;11.40;;;3.10;;
25327;SDS011;13279;51.300;12.394;2023-03-31T11:31:25;7.40;;;3.53;;
25327;SDS011;13279;51.300;12.394;2023-03-31T11:34:02;9.83;;;2.70;;
25327;SDS011;13279;51.300;12.394;2023-03-31T11:36:49;5.27;;;2.70;;
25327;SDS011;13279;51.300;12.394;2023-03-31T11:39:37;6.70;;;2.50;;
25327;SDS011;13279;51.300;12.394;2023-03-31T11:42:14;4.43;;;2.70;;
25327;SDS011;13279;51.300;12.394;2023-03-31T11:44:45;9.23;;;3.00;;
25327;SDS011;13279;51.300;12.394;2023-03-31T11:47:18;6.30;;;3.20;;
25327;SDS011;13279;51.300;12.394;2023-03-31T11:49:50;11.03;;;3.37;;
25327;SDS011;13279;51.300;12.394;2023-03-31T11:52:22;10.40;;;3.17;;
25327;SDS011;13279;51.300;12.394;2023-03-31T11:54:56;5.20;;;3.20;;
25327;SDS011;13279;51.300;12.394;2023-03-31T11:57:29;9.27;;;3.40;;
25327;SDS011;13279;51.300;12.394;2023-03-31T11:59:59;10.83;;;2.97;;
25327;SDS011;13279;51.300;12.394;2023-03-31T12:02:38;10.90;;;2.90;;
25327;SDS011;13279;51.300;12.394;2023-03-31T12:05:11;4.80;;;2.67;;
25327;SDS011;13279;51.300;12.394;2023-03-31T12:07:42;6.77;;;2.80;;
25327;SDS011;13279;51.300;12.394;2023-03-31T12:10:16;5.47;;;3.20;;
25327;SDS011;13279;51.300;12.394;2023-03-31T12:12:48;3.60;;;2.97;;
25327;SDS011;13279;51.300;12.394;2023-03-31T12:15:21;5.63;;;2.97;;
25327;SDS011;13279;51.300;12.394;2023-03-31T12:17:53;6.30;;;3.20;;
25327;SDS011;13279;51.300;12.394;2023-03-31T12:20:30;3.43;;;2.47;;
25327;SDS011;13279;51.300;12.394;2023-03-31T12:23:02;5.23;;;3.27;;
25327;SDS011;13279;51.300;12.394;2023-03-31T12:25:41;5.33;;;3.07;;
25327;SDS011;13279;51.300;12.394;2023-03-31T12:28:13;5.37;;;2.87;;
25327;SDS011;13279;51.300;12.394;2023-03-31T12:30:42;6.87;;;2.77;;
25327;SDS011;13279;51.300;12.394;2023-03-31T12:33:14;5.13;;;2.83;;
25327;SDS011;13279;51.300;12.394;2023-03-31T12:35:49;10.60;;;3.13;;
25327;SDS011;13279;51.300;12.394;2023-03-31T12:38:34;5.73;;;3.23;;
25327;SDS011;13279;51.300;12.394;2023-03-31T12:41:11;9.43;;;3.00;;
25327;SDS011;13279;51.300;12.394;2023-03-31T12:49:54;7.00;;;3.27;;
25327;SDS011;13279;51.300;12.394;2023-03-31T12:52:30;9.67;;;3.63;;
25327;SDS011;13279;51.300;12.394;2023-03-31T12:55:09;4.77;;;3.23;;
25327;SDS011;13279;51.300;12.394;2023-03-31T12:57:51;4.10;;;3.17;;
25327;SDS011;13279;51.300;12.394;2023-03-31T13:00:19;8.07;;;4.43;;
25327;SDS011;13279;51.300;12.394;2023-03-31T13:02:50;5.00;;;2.80;;
25327;SDS011;13279;51.300;12.394;2023-03-31T13:05:58;7.07;;;3.80;;
25327;SDS011;13279;51.300;12.394;2023-03-31T13:11:16;3.43;;;2.30;;
25327;SDS011;13279;51.300;12.394;2023-03-31T13:13:50;3.43;;;2.47;;
25327;SDS011;13279;51.300;12.394;2023-03-31T13:16:24;5.00;;;2.00;;
25327;SDS011;13279;51.300;12.394;2023-03-31T13:18:52;2.83;;;2.00;;
25327;SDS011;13279;51.300;12.394;2023-03-31T13:21:21;2.83;;;1.83;;
25327;SDS011;13279;51.300;12.394;2023-03-31T13:23:49;2.60;;;1.70;;
25327;SDS011;13279;51.300;12.394;2023-03-31T13:26:38;2.40;;;1.20;;
25327;SDS011;13279;51.300;12.394;2023-03-31T13:29:17;2.27;;;1.20;;
25327;SDS011;13279;51.300;12.394;2023-03-31T13:34:49;1.83;;;1.60;;
25327;SDS011;13279;51.300;12.394;2023-03-31T13:37:36;2.00;;;1.03;;
25327;SDS011;13279;51.300;12.394;2023-03-31T13:49:48;2.03;;;1.00;;
25327;SDS011;13279;51.300;12.394;2023-03-31T13:52:51;0.97;;;0.73;;
25327;SDS011;13279;51.300;12.394;2023-03-31T14:05:19;1.53;;;0.70;;
25327;SDS011;13279;51.300;12.394;2023-03-31T14:07:52;1.53;;;0.80;;
25327;SDS011;13279;51.300;12.394;2023-03-31T14:10:23;1.23;;;0.70;;
25327;SDS011;13279;51.300;12.394;2023-03-31T14:13:03;2.10;;;1.10;;
25327;SDS011;13279;51.300;12.394;2023-03-31T14:15:34;4.67;;;0.80;;
25327;SDS011;13279;51.300;12.394;2023-03-31T14:18:03;1.57;;;1.00;;
25327;SDS011;13279;51.300;12.394;2023-03-31T14:20:35;1.03;;;0.90;;
25327;SDS011;13279;51.300;12.394;2023-03-31T14:23:15;2.93;;;0.80;;
25327;SDS011;13279;51.300;12.394;2023-03-31T14:25:56;4.17;;;1.10;;
25327;SDS011;13279;51.300;12.394;2023-03-31T14:31:28;1.37;;;0.97;;
25327;SDS011;13279;51.300;12.394;2023-03-31T14:37:02;1.83;;;1.20;;
25327;SDS011;13279;51.300;12.394;2023-03-31T14:39:33;2.60;;;1.40;;
25327;SDS011;13279;51.300;12.394;2023-03-31T14:42:04;5.93;;;2.13;;
25327;SDS011;13279;51.300;12.394;2023-03-31T14:44:37;6.57;;;0.80;;
25327;SDS011;13279;51.300;12.394;2023-03-31T14:47:10;3.40;;;1.13;;
25327;SDS011;13279;51.300;12.394;2023-03-31T14:49:40;3.03;;;1.20;;
25327;SDS011;13279;51.300;12.394;2023-03-31T14:52:13;4.73;;;1.13;;
25327;SDS011;13279;51.300;12.394;2023-03-31T14:54:43;8.20;;;1.23;;
25327;SDS011;13279;51.300;12.394;2023-03-31T14:57:12;5.80;;;1.33;;
25327;SDS011;13279;51.300;12.394;2023-03-31T14:59:43;1.10;;;0.77;;
25327;SDS011;13279;51.300;12.394;2023-03-31T15:02:13;1.10;;;0.93;;
25327;SDS011;13279;51.300;12.394;2023-03-31T15:04:46;3.40;;;1.20;;
25327;SDS011;13279;51.300;12.394;2023-03-31T15:07:17;3.33;;;1.50;;
25327;SDS011;13279;51.300;12.394;2023-03-31T15:09:45;4.77;;;1.53;;
25327;SDS011;13279;51.300;12.394;2023-03-31T15:12:16;6.77;;;1.40;;
25327;SDS011;13279;51.300;12.394;2023-03-31T15:14:48;3.97;;;0.67;;
25327;SDS011;13279;51.300;12.394;2023-03-31T15:17:18;1.87;;;1.40;;
25327;SDS011;13279;51.300;12.394;2023-03-31T15:19:51;5.17;;;1.50;;
25327;SDS011;13279;51.300;12.394;2023-03-31T15:22:23;2.47;;;1.40;;
25327;SDS011;13279;51.300;12.394;2023-03-31T15:24:52;3.87;;;1.80;;
25327;SDS011;13279;51.300;12.394;2023-03-31T15:27:23;4.83;;;2.07;;
25327;SDS011;13279;51.300;12.394;2023-03-31T15:29:57;2.03;;;1.40;;
25327;SDS011;13279;51.300;12.394;2023-03-31T15:32:27;2.70;;;1.20;;
25327;SDS011;13279;51.300;12.394;2023-03-31T15:34:57;4.53;;;1.37;;
25327;SDS011;13279;51.300;12.394;2023-03-31T15:37:26;2.17;;;0.83;;
25327;SDS011;13279;51.300;12.394;2023-03-31T15:39:57;2.53;;;1.30;;
25327;SDS011;13279;51.300;12.394;2023-03-31T15:42:29;2.17;;;1.07;;
25327;SDS011;13279;51.300;12.394;2023-03-31T15:45:02;2.00;;;1.23;;
25327;SDS011;13279;51.300;12.394;2023-03-31T15:48:03;2.70;;;1.77;;
25327;SDS011;13279;51.300;12.394;2023-03-31T15:50:31;3.33;;;1.57;;
25327;SDS011;13279;51.300;12.394;2023-03-31T15:53:01;1.13;;;1.00;;
25327;SDS011;13279;51.300;12.394;2023-03-31T15:55:29;1.40;;;1.27;;
25327;SDS011;13279;51.300;12.394;2023-03-31T15:57:59;1.67;;;1.00;;
25327;SDS011;13279;51.300;12.394;2023-03-31T16:00:42;1.37;;;0.90;;